sensor_id;sensor_type;location;lat;lon;timestamp;P1;durP1;ratioP1;P2;durP2;ratioP2
3487;SDS011;38546;48.170;11.724;2022-09-09T00:05:26;2.73;;;2.53;;
3487;SDS011;38546;48.170;11.724;2022-09-09T00:12:22;6.50;;;2.40;;
3487;SDS011;38546;48.170;11.724;2022-09-09T00:16:00;2.83;;;2.63;;
3487;SDS011;38546;48.170;11.724;2022-09-09T00:28:28;2.90;;;2.70;;
3487;SDS011;38546;48.170;11.724;2022-09-09T00:31:23;3.37;;;3.07;;
3487;SDS011;38546;48.170;11.724;2022-09-09T00:34:21;2.60;;;2.40;;
3487;SDS011;38546;48.170;11.724;2022-09-09T00:37:13;2.63;;;2.53;;
3487;SDS011;38546;48.170;11.724;2022-09-09T00:40:08;2.63;;;2.47;;
3487;SDS011;38546;48.170;11.724;2022-09-09T00:57:26;2.77;;;2.53;;
3487;SDS011;38546;48.170;11.724;2022-09-09T01:01:23;2.37;;;2.27;;
3487;SDS011;38546;48.170;11.724;2022-09-09T01:04:14;2.50;;;2.33;;
3487;SDS011;38546;48.170;11.724;2022-09-09T01:07:17;2.70;;;2.50;;
3487;SDS011;38546;48.170;11.724;2022-09-09T01:10:11;2.83;;;2.60;;
3487;SDS011;38546;48.170;11.724;2022-09-09T01:13:25;2.27;;;2.17;;
3487;SDS011;38546;48.170;11.724;2022-09-09T01:16:22;2.20;;;2.10;;
3487;SDS011;38546;48.170;11.724;2022-09-09T01:19:14;3.30;;;2.07;;
3487;SDS011;38546;48.170;11.724;2022-09-09T01:22:22;2.10;;;2.00;;
3487;SDS011;38546;48.170;11.724;2022-09-09T01:26:34;2.80;;;2.50;;
3487;SDS011;38546;48.170;11.724;2022-09-09T01:29:27;2.40;;;2.30;;
3487;SDS011;38546;48.170;11.724;2022-09-09T01:40:17;2.57;;;2.37;;
3487;SDS011;38546;48.170;11.724;2022-09-09T01:43:07;2.90;;;2.70;;
3487;SDS011;38546;48.170;11.724;2022-09-09T01:45:59;2.80;;;2.63;;
3487;SDS011;38546;48.170;11.724;2022-09-09T01:48:51;2.80;;;2.60;;
3487;SDS011;38546;48.170;11.724;2022-09-09T01:51:42;2.20;;;2.10;;
3487;SDS011;38546;48.170;11.724;2022-09-09T01:54:32;2.60;;;2.40;;
3487;SDS011;38546;48.170;11.724;2022-09-09T01:57:48;2.70;;;2.50;;
3487;SDS011;38546;48.170;11.724;2022-09-09T02:07:38;2.30;;;2.20;;
3487;SDS011;38546;48.170;11.724;2022-09-09T02:10:31;2.17;;;2.07;;
3487;SDS011;38546;48.170;11.724;2022-09-09T02:13:35;4.93;;;3.53;;
3487;SDS011;38546;48.170;11.724;2022-09-09T02:16:28;5.17;;;2.30;;
3487;SDS011;38546;48.170;11.724;2022-09-09T02:19:27;5.60;;;2.00;;
3487;SDS011;38546;48.170;11.724;2022-09-09T02:22:22;2.40;;;2.30;;
3487;SDS011;38546;48.170;11.724;2022-09-09T02:25:15;2.75;;;2.55;;
3487;SDS011;38546;48.170;11.724;2022-09-09T02:28:08;2.63;;;2.43;;
3487;SDS011;38546;48.170;11.724;2022-09-09T02:31:01;2.40;;;2.30;;
3487;SDS011;38546;48.170;11.724;2022-09-09T02:33:52;2.13;;;2.03;;
3487;SDS011;38546;48.170;11.724;2022-09-09T02:36:46;2.23;;;2.13;;
3487;SDS011;38546;48.170;11.724;2022-09-09T02:39:36;2.53;;;2.33;;
3487;SDS011;38546;48.170;11.724;2022-09-09T02:42:26;2.83;;;2.58;;
3487;SDS011;38546;48.170;11.724;2022-09-09T02:45:17;2.37;;;2.27;;
3487;SDS011;38546;48.170;11.724;2022-09-09T02:48:30;7.40;;;2.40;;
3487;SDS011;38546;48.170;11.724;2022-09-09T02:54:57;2.63;;;2.40;;
3487;SDS011;38546;48.170;11.724;2022-09-09T02:57:55;2.47;;;2.37;;
3487;SDS011;38546;48.170;11.724;2022-09-09T03:00:48;2.47;;;2.28;;
3487;SDS011;38546;48.170;11.724;2022-09-09T03:03:39;5.60;;;2.40;;
3487;SDS011;38546;48.170;11.724;2022-09-09T03:06:29;4.15;;;2.35;;
3487;SDS011;38546;48.170;11.724;2022-09-09T03:09:20;7.60;;;2.90;;
3487;SDS011;38546;48.170;11.724;2022-09-09T03:12:09;2.53;;;2.37;;
3487;SDS011;38546;48.170;11.724;2022-09-09T03:15:00;2.20;;;2.10;;
3487;SDS011;38546;48.170;11.724;2022-09-09T03:17:49;2.03;;;1.93;;
3487;SDS011;38546;48.170;11.724;2022-09-09T03:20:39;2.90;;;2.70;;
3487;SDS011;38546;48.170;11.724;2022-09-09T03:23:30;2.10;;;1.90;;
3487;SDS011;38546;48.170;11.724;2022-09-09T03:26:20;3.40;;;2.53;;
3487;SDS011;38546;48.170;11.724;2022-09-09T03:29:10;3.47;;;2.10;;
3487;SDS011;38546;48.170;11.724;2022-09-09T03:32:01;2.37;;;2.27;;
3487;SDS011;38546;48.170;11.724;2022-09-09T03:34:51;3.83;;;2.40;;
3487;SDS011;38546;48.170;11.724;2022-09-09T03:37:41;2.23;;;2.10;;
3487;SDS011;38546;48.170;11.724;2022-09-09T03:40:31;2.53;;;2.33;;
3487;SDS011;38546;48.170;11.724;2022-09-09T03:43:20;4.50;;;2.37;;
3487;SDS011;38546;48.170;11.724;2022-09-09T03:46:10;3.80;;;1.97;;
3487;SDS011;38546;48.170;11.724;2022-09-09T03:48:59;2.10;;;2.00;;
3487;SDS011;38546;48.170;11.724;2022-09-09T03:51:49;2.60;;;1.90;;
3487;SDS011;38546;48.170;11.724;2022-09-09T03:54:38;1.70;;;1.60;;
3487;SDS011;38546;48.170;11.724;2022-09-09T03:57:28;2.33;;;2.10;;
3487;SDS011;38546;48.170;11.724;2022-09-09T04:00:18;2.03;;;1.87;;
3487;SDS011;38546;48.170;11.724;2022-09-09T04:03:09;2.10;;;2.00;;
3487;SDS011;38546;48.170;11.724;2022-09-09T04:05:59;1.87;;;1.77;;
3487;SDS011;38546;48.170;11.724;2022-09-09T04:08:51;2.00;;;1.90;;
3487;SDS011;38546;48.170;11.724;2022-09-09T04:11:41;1.97;;;1.87;;
3487;SDS011;38546;48.170;11.724;2022-09-09T04:14:30;2.43;;;2.27;;
3487;SDS011;38546;48.170;11.724;2022-09-09T04:17:20;3.27;;;2.10;;
3487;SDS011;38546;48.170;11.724;2022-09-09T04:20:09;2.30;;;2.20;;
3487;SDS011;38546;48.170;11.724;2022-09-09T04:23:00;2.13;;;2.00;;
3487;SDS011;38546;48.170;11.724;2022-09-09T04:25:50;2.83;;;1.93;;
3487;SDS011;38546;48.170;11.724;2022-09-09T04:28:42;2.30;;;2.20;;
3487;SDS011;38546;48.170;11.724;2022-09-09T04:31:31;3.33;;;2.10;;
3487;SDS011;38546;48.170;11.724;2022-09-09T04:34:22;2.17;;;2.07;;
3487;SDS011;38546;48.170;11.724;2022-09-09T04:37:12;2.47;;;2.27;;
3487;SDS011;38546;48.170;11.724;2022-09-09T04:40:02;3.43;;;2.33;;
3487;SDS011;38546;48.170;11.724;2022-09-09T04:42:54;2.40;;;2.20;;
3487;SDS011;38546;48.170;11.724;2022-09-09T04:45:44;2.58;;;2.33;;
3487;SDS011;38546;48.170;11.724;2022-09-09T04:48:36;3.03;;;2.27;;
3487;SDS011;38546;48.170;11.724;2022-09-09T04:51:25;2.63;;;2.43;;
3487;SDS011;38546;48.170;11.724;2022-09-09T04:54:15;2.43;;;2.20;;
3487;SDS011;38546;48.170;11.724;2022-09-09T04:57:04;2.57;;;2.10;;
3487;SDS011;38546;48.170;11.724;2022-09-09T04:59:54;2.77;;;2.27;;
3487;SDS011;38546;48.170;11.724;2022-09-09T05:02:43;2.30;;;2.20;;
3487;SDS011;38546;48.170;11.724;2022-09-09T05:05:33;1.90;;;1.80;;
3487;SDS011;38546;48.170;11.724;2022-09-09T05:08:23;2.40;;;2.30;;
3487;SDS011;38546;48.170;11.724;2022-09-09T05:11:20;2.23;;;2.03;;
3487;SDS011;38546;48.170;11.724;2022-09-09T05:14:15;2.63;;;2.43;;
3487;SDS011;38546;48.170;11.724;2022-09-09T05:17:06;1.80;;;1.70;;
3487;SDS011;38546;48.170;11.724;2022-09-09T05:19:56;2.17;;;2.03;;
3487;SDS011;38546;48.170;11.724;2022-09-09T05:22:45;3.50;;;1.97;;
3487;SDS011;38546;48.170;11.724;2022-09-09T05:25:34;2.23;;;2.13;;
3487;SDS011;38546;48.170;11.724;2022-09-09T05:28:25;2.33;;;1.97;;
3487;SDS011;38546;48.170;11.724;2022-09-09T05:31:16;2.30;;;2.10;;
3487;SDS011;38546;48.170;11.724;2022-09-09T05:34:06;2.10;;;1.80;;
3487;SDS011;38546;48.170;11.724;2022-09-09T05:36:56;2.20;;;2.10;;
3487;SDS011;38546;48.170;11.724;2022-09-09T05:39:45;3.83;;;3.23;;
3487;SDS011;38546;48.170;11.724;2022-09-09T05:42:34;2.43;;;2.07;;
3487;SDS011;38546;48.170;11.724;2022-09-09T05:45:23;2.20;;;1.93;;
3487;SDS011;38546;48.170;11.724;2022-09-09T05:48:14;2.00;;;1.90;;
3487;SDS011;38546;48.170;11.724;2022-09-09T05:51:05;2.13;;;2.03;;
3487;SDS011;38546;48.170;11.724;2022-09-09T05:53:58;2.10;;;2.00;;
3487;SDS011;38546;48.170;11.724;2022-09-09T05:56:47;2.00;;;1.90;;
3487;SDS011;38546;48.170;11.724;2022-09-09T05:59:39;1.73;;;1.67;;
3487;SDS011;38546;48.170;11.724;2022-09-09T06:02:28;5.00;;;2.00;;
3487;SDS011;38546;48.170;11.724;2022-09-09T06:05:18;2.67;;;2.47;;
3487;SDS011;38546;48.170;11.724;2022-09-09T06:08:08;2.73;;;2.43;;
3487;SDS011;38546;48.170;11.724;2022-09-09T06:11:02;2.57;;;2.37;;
3487;SDS011;38546;48.170;11.724;2022-09-09T06:13:58;1.73;;;1.63;;
3487;SDS011;38546;48.170;11.724;2022-09-09T06:16:48;2.50;;;2.33;;
3487;SDS011;38546;48.170;11.724;2022-09-09T06:19:37;2.67;;;2.47;;
3487;SDS011;38546;48.170;11.724;2022-09-09T06:22:26;1.73;;;1.62;;
3487;SDS011;38546;48.170;11.724;2022-09-09T06:25:15;2.45;;;1.75;;
3487;SDS011;38546;48.170;11.724;2022-09-09T06:28:06;2.23;;;1.60;;
3487;SDS011;38546;48.170;11.724;2022-09-09T06:30:59;3.10;;;2.00;;
3487;SDS011;38546;48.170;11.724;2022-09-09T06:33:50;2.17;;;1.97;;
3487;SDS011;38546;48.170;11.724;2022-09-09T06:36:41;2.45;;;2.25;;
3487;SDS011;38546;48.170;11.724;2022-09-09T06:39:31;1.83;;;1.73;;
3487;SDS011;38546;48.170;11.724;2022-09-09T06:42:20;1.90;;;1.80;;
3487;SDS011;38546;48.170;11.724;2022-09-09T06:45:09;1.83;;;1.73;;
3487;SDS011;38546;48.170;11.724;2022-09-09T06:47:59;1.80;;;1.70;;
3487;SDS011;38546;48.170;11.724;2022-09-09T06:50:49;3.53;;;2.00;;
3487;SDS011;38546;48.170;11.724;2022-09-09T06:53:38;2.00;;;1.50;;
3487;SDS011;38546;48.170;11.724;2022-09-09T06:56:33;4.20;;;2.10;;
3487;SDS011;38546;48.170;11.724;2022-09-09T06:59:24;5.20;;;2.00;;
3487;SDS011;38546;48.170;11.724;2022-09-09T07:02:14;1.83;;;1.73;;
3487;SDS011;38546;48.170;11.724;2022-09-09T07:05:03;1.60;;;1.60;;
3487;SDS011;38546;48.170;11.724;2022-09-09T07:07:55;2.47;;;2.27;;
3487;SDS011;38546;48.170;11.724;2022-09-09T07:10:44;1.70;;;1.60;;
3487;SDS011;38546;48.170;11.724;2022-09-09T07:13:32;2.87;;;1.80;;
3487;SDS011;38546;48.170;11.724;2022-09-09T07:16:23;2.00;;;1.90;;
3487;SDS011;38546;48.170;11.724;2022-09-09T07:19:13;3.90;;;1.93;;
3487;SDS011;38546;48.170;11.724;2022-09-09T07:22:03;4.43;;;1.77;;
3487;SDS011;38546;48.170;11.724;2022-09-09T07:24:54;2.03;;;1.50;;
3487;SDS011;38546;48.170;11.724;2022-09-09T07:27:44;3.40;;;2.00;;
3487;SDS011;38546;48.170;11.724;2022-09-09T07:30:33;1.77;;;1.67;;
3487;SDS011;38546;48.170;11.724;2022-09-09T07:33:22;4.77;;;2.07;;
3487;SDS011;38546;48.170;11.724;2022-09-09T07:36:20;1.67;;;1.57;;
3487;SDS011;38546;48.170;11.724;2022-09-09T07:39:18;1.90;;;1.80;;
3487;SDS011;38546;48.170;11.724;2022-09-09T07:42:06;1.80;;;1.70;;
3487;SDS011;38546;48.170;11.724;2022-09-09T07:44:56;2.00;;;1.90;;
3487;SDS011;38546;48.170;11.724;2022-09-09T07:47:45;2.20;;;2.00;;
3487;SDS011;38546;48.170;11.724;2022-09-09T07:50:36;2.13;;;2.00;;
3487;SDS011;38546;48.170;11.724;2022-09-09T07:53:25;2.55;;;1.95;;
3487;SDS011;38546;48.170;11.724;2022-09-09T07:56:15;6.23;;;2.53;;
3487;SDS011;38546;48.170;11.724;2022-09-09T07:59:06;5.70;;;2.57;;
3487;SDS011;38546;48.170;11.724;2022-09-09T08:01:57;3.37;;;3.10;;
3487;SDS011;38546;48.170;11.724;2022-09-09T08:04:47;2.55;;;2.40;;
3487;SDS011;38546;48.170;11.724;2022-09-09T08:07:37;2.30;;;2.17;;
3487;SDS011;38546;48.170;11.724;2022-09-09T08:10:27;1.90;;;1.80;;
3487;SDS011;38546;48.170;11.724;2022-09-09T08:13:16;2.00;;;1.90;;
3487;SDS011;38546;48.170;11.724;2022-09-09T08:16:08;2.10;;;2.00;;
3487;SDS011;38546;48.170;11.724;2022-09-09T08:19:03;2.00;;;1.90;;
3487;SDS011;38546;48.170;11.724;2022-09-09T08:21:55;2.60;;;2.40;;
3487;SDS011;38546;48.170;11.724;2022-09-09T08:24:45;1.70;;;1.60;;
3487;SDS011;38546;48.170;11.724;2022-09-09T08:27:36;2.33;;;2.23;;
3487;SDS011;38546;48.170;11.724;2022-09-09T08:30:26;2.93;;;2.43;;
3487;SDS011;38546;48.170;11.724;2022-09-09T08:33:15;2.13;;;1.97;;
3487;SDS011;38546;48.170;11.724;2022-09-09T08:36:05;1.90;;;1.70;;
3487;SDS011;38546;48.170;11.724;2022-09-09T08:38:57;2.40;;;2.30;;
3487;SDS011;38546;48.170;11.724;2022-09-09T08:47:13;4.78;;;1.77;;
3487;SDS011;38546;48.170;11.724;2022-09-09T08:50:50;4.23;;;1.80;;
3487;SDS011;38546;48.170;11.724;2022-09-09T08:53:42;1.47;;;1.47;;
3487;SDS011;38546;48.170;11.724;2022-09-09T08:56:37;2.45;;;1.37;;
3487;SDS011;38546;48.170;11.724;2022-09-09T08:59:27;1.50;;;1.40;;
3487;SDS011;38546;48.170;11.724;2022-09-09T09:08:29;8.10;;;2.20;;
3487;SDS011;38546;48.170;11.724;2022-09-09T09:11:40;2.60;;;1.90;;
3487;SDS011;38546;48.170;11.724;2022-09-09T09:14:49;3.33;;;2.47;;
3487;SDS011;38546;48.170;11.724;2022-09-09T09:17:39;1.70;;;1.60;;
3487;SDS011;38546;48.170;11.724;2022-09-09T09:20:38;1.40;;;1.40;;
3487;SDS011;38546;48.170;11.724;2022-09-09T09:24:20;4.37;;;2.57;;
3487;SDS011;38546;48.170;11.724;2022-09-09T09:27:27;2.33;;;2.12;;
3487;SDS011;38546;48.170;11.724;2022-09-09T09:30:26;3.47;;;3.17;;
3487;SDS011;38546;48.170;11.724;2022-09-09T09:33:33;4.33;;;2.50;;
3487;SDS011;38546;48.170;11.724;2022-09-09T09:36:57;3.53;;;2.85;;
3487;SDS011;38546;48.170;11.724;2022-09-09T09:39:51;3.03;;;2.73;;
3487;SDS011;38546;48.170;11.724;2022-09-09T09:42:51;4.57;;;2.40;;
3487;SDS011;38546;48.170;11.724;2022-09-09T09:45:49;3.80;;;2.37;;
3487;SDS011;38546;48.170;11.724;2022-09-09T09:48:38;1.60;;;1.60;;
3487;SDS011;38546;48.170;11.724;2022-09-09T09:51:27;4.57;;;1.97;;
3487;SDS011;38546;48.170;11.724;2022-09-09T09:54:28;2.77;;;1.87;;
3487;SDS011;38546;48.170;11.724;2022-09-09T09:57:24;1.93;;;1.83;;
3487;SDS011;38546;48.170;11.724;2022-09-09T10:00:19;2.37;;;1.90;;
3487;SDS011;38546;48.170;11.724;2022-09-09T10:03:24;1.63;;;1.53;;
3487;SDS011;38546;48.170;11.724;2022-09-09T10:06:29;1.80;;;1.33;;
3487;SDS011;38546;48.170;11.724;2022-09-09T10:09:29;2.33;;;1.50;;
3487;SDS011;38546;48.170;11.724;2022-09-09T10:12:28;1.60;;;1.50;;
3487;SDS011;38546;48.170;11.724;2022-09-09T10:32:57;1.42;;;1.33;;
3487;SDS011;38546;48.170;11.724;2022-09-09T10:46:28;1.70;;;1.60;;
3487;SDS011;38546;48.170;11.724;2022-09-09T10:50:06;1.70;;;1.60;;
3487;SDS011;38546;48.170;11.724;2022-09-09T10:58:34;1.37;;;1.27;;
3487;SDS011;38546;48.170;11.724;2022-09-09T11:01:45;1.70;;;1.60;;
3487;SDS011;38546;48.170;11.724;2022-09-09T11:04:49;1.60;;;1.30;;
3487;SDS011;38546;48.170;11.724;2022-09-09T11:10:25;1.50;;;1.40;;
3487;SDS011;38546;48.170;11.724;2022-09-09T11:13:49;1.17;;;1.07;;
3487;SDS011;38546;48.170;11.724;2022-09-09T11:16:58;6.57;;;1.50;;
3487;SDS011;38546;48.170;11.724;2022-09-09T11:19:52;1.20;;;1.20;;
3487;SDS011;38546;48.170;11.724;2022-09-09T11:22:48;1.50;;;1.40;;
3487;SDS011;38546;48.170;11.724;2022-09-09T11:25:47;1.40;;;1.30;;
3487;SDS011;38546;48.170;11.724;2022-09-09T11:29:00;1.07;;;1.07;;
3487;SDS011;38546;48.170;11.724;2022-09-09T11:33:04;4.50;;;1.03;;
3487;SDS011;38546;48.170;11.724;2022-09-09T11:37:59;2.10;;;1.30;;
3487;SDS011;38546;48.170;11.724;2022-09-09T11:41:17;1.00;;;1.00;;
3487;SDS011;38546;48.170;11.724;2022-09-09T11:44:13;1.63;;;1.10;;
3487;SDS011;38546;48.170;11.724;2022-09-09T11:47:16;1.17;;;1.17;;
3487;SDS011;38546;48.170;11.724;2022-09-09T11:50:30;1.00;;;0.90;;
3487;SDS011;38546;48.170;11.724;2022-09-09T11:53:26;0.90;;;0.90;;
3487;SDS011;38546;48.170;11.724;2022-09-09T11:56:29;0.80;;;0.80;;
3487;SDS011;38546;48.170;11.724;2022-09-09T11:59:33;1.50;;;1.13;;
3487;SDS011;38546;48.170;11.724;2022-09-09T12:02:22;0.73;;;0.73;;
3487;SDS011;38546;48.170;11.724;2022-09-09T12:05:19;0.80;;;0.80;;
3487;SDS011;38546;48.170;11.724;2022-09-09T12:08:10;1.58;;;1.48;;
3487;SDS011;38546;48.170;11.724;2022-09-09T12:11:23;1.80;;;0.87;;
3487;SDS011;38546;48.170;11.724;2022-09-09T12:14:20;1.67;;;1.03;;
3487;SDS011;38546;48.170;11.724;2022-09-09T12:17:31;1.03;;;0.90;;
3487;SDS011;38546;48.170;11.724;2022-09-09T12:20:38;1.00;;;1.00;;
3487;SDS011;38546;48.170;11.724;2022-09-09T12:23:48;0.87;;;0.87;;
3487;SDS011;38546;48.170;11.724;2022-09-09T12:26:43;1.70;;;0.90;;
3487;SDS011;38546;48.170;11.724;2022-09-09T12:33:10;0.90;;;0.90;;
3487;SDS011;38546;48.170;11.724;2022-09-09T12:36:05;1.73;;;1.10;;
3487;SDS011;38546;48.170;11.724;2022-09-09T12:39:09;1.10;;;1.10;;
3487;SDS011;38546;48.170;11.724;2022-09-09T12:42:14;0.90;;;0.90;;
3487;SDS011;38546;48.170;11.724;2022-09-09T12:45:14;1.30;;;1.30;;
3487;SDS011;38546;48.170;11.724;2022-09-09T12:48:10;1.33;;;1.10;;
3487;SDS011;38546;48.170;11.724;2022-09-09T12:51:01;0.80;;;0.80;;
3487;SDS011;38546;48.170;11.724;2022-09-09T12:53:51;1.48;;;1.00;;
3487;SDS011;38546;48.170;11.724;2022-09-09T12:56:44;1.00;;;0.90;;
3487;SDS011;38546;48.170;11.724;2022-09-09T12:59:36;1.17;;;1.17;;
3487;SDS011;38546;48.170;11.724;2022-09-09T13:02:30;2.13;;;1.13;;
3487;SDS011;38546;48.170;11.724;2022-09-09T13:05:26;1.10;;;1.00;;
3487;SDS011;38546;48.170;11.724;2022-09-09T13:08:30;1.03;;;1.03;;
3487;SDS011;38546;48.170;11.724;2022-09-09T13:12:03;1.17;;;1.17;;
3487;SDS011;38546;48.170;11.724;2022-09-09T13:14:54;1.13;;;1.03;;
3487;SDS011;38546;48.170;11.724;2022-09-09T13:17:49;1.08;;;1.08;;
3487;SDS011;38546;48.170;11.724;2022-09-09T13:20:45;1.33;;;1.23;;
3487;SDS011;38546;48.170;11.724;2022-09-09T13:23:37;0.90;;;0.90;;
3487;SDS011;38546;48.170;11.724;2022-09-09T13:26:27;1.00;;;1.00;;
3487;SDS011;38546;48.170;11.724;2022-09-09T13:29:18;1.15;;;1.02;;
3487;SDS011;38546;48.170;11.724;2022-09-09T13:32:18;1.10;;;1.10;;
3487;SDS011;38546;48.170;11.724;2022-09-09T13:35:22;1.20;;;1.20;;
3487;SDS011;38546;48.170;11.724;2022-09-09T13:38:13;1.00;;;1.00;;
3487;SDS011;38546;48.170;11.724;2022-09-09T13:41:05;1.20;;;1.10;;
3487;SDS011;38546;48.170;11.724;2022-09-09T13:43:57;0.80;;;0.80;;
3487;SDS011;38546;48.170;11.724;2022-09-09T13:46:47;0.90;;;0.90;;
3487;SDS011;38546;48.170;11.724;2022-09-09T13:49:51;0.87;;;0.87;;
3487;SDS011;38546;48.170;11.724;2022-09-09T13:52:41;1.30;;;1.20;;
3487;SDS011;38546;48.170;11.724;2022-09-09T13:55:31;1.97;;;1.00;;
3487;SDS011;38546;48.170;11.724;2022-09-09T13:58:22;0.97;;;0.97;;
3487;SDS011;38546;48.170;11.724;2022-09-09T14:01:13;2.13;;;1.03;;
3487;SDS011;38546;48.170;11.724;2022-09-09T14:04:03;0.90;;;0.90;;
3487;SDS011;38546;48.170;11.724;2022-09-09T14:06:55;0.80;;;0.80;;
3487;SDS011;38546;48.170;11.724;2022-09-09T14:09:44;1.07;;;1.07;;
3487;SDS011;38546;48.170;11.724;2022-09-09T14:12:38;0.90;;;0.90;;
3487;SDS011;38546;48.170;11.724;2022-09-09T14:15:27;1.00;;;1.00;;
3487;SDS011;38546;48.170;11.724;2022-09-09T14:18:17;0.90;;;0.90;;
3487;SDS011;38546;48.170;11.724;2022-09-09T14:21:07;1.13;;;1.10;;
3487;SDS011;38546;48.170;11.724;2022-09-09T14:23:57;0.77;;;0.77;;
3487;SDS011;38546;48.170;11.724;2022-09-09T14:26:48;7.30;;;1.73;;
3487;SDS011;38546;48.170;11.724;2022-09-09T14:29:37;0.93;;;0.93;;
3487;SDS011;38546;48.170;11.724;2022-09-09T14:32:26;1.08;;;1.08;;
3487;SDS011;38546;48.170;11.724;2022-09-09T14:35:18;1.20;;;1.20;;
3487;SDS011;38546;48.170;11.724;2022-09-09T14:38:08;1.10;;;1.10;;
3487;SDS011;38546;48.170;11.724;2022-09-09T14:40:58;0.80;;;0.80;;
3487;SDS011;38546;48.170;11.724;2022-09-09T14:43:51;1.07;;;0.90;;
3487;SDS011;38546;48.170;11.724;2022-09-09T14:46:42;1.17;;;1.17;;
3487;SDS011;38546;48.170;11.724;2022-09-09T14:49:31;1.30;;;1.30;;
3487;SDS011;38546;48.170;11.724;2022-09-09T14:52:22;4.00;;;1.17;;
3487;SDS011;38546;48.170;11.724;2022-09-09T14:55:12;1.20;;;1.10;;
3487;SDS011;38546;48.170;11.724;2022-09-09T14:58:03;2.20;;;1.30;;
3487;SDS011;38546;48.170;11.724;2022-09-09T15:00:54;1.70;;;1.37;;
3487;SDS011;38546;48.170;11.724;2022-09-09T15:03:49;0.97;;;0.97;;
3487;SDS011;38546;48.170;11.724;2022-09-09T15:06:50;2.50;;;2.13;;
3487;SDS011;38546;48.170;11.724;2022-09-09T15:09:41;1.90;;;1.27;;
3487;SDS011;38546;48.170;11.724;2022-09-09T15:12:30;1.00;;;1.00;;
3487;SDS011;38546;48.170;11.724;2022-09-09T15:15:21;1.40;;;1.30;;
3487;SDS011;38546;48.170;11.724;2022-09-09T15:18:10;1.10;;;1.00;;
3487;SDS011;38546;48.170;11.724;2022-09-09T15:21:00;1.10;;;1.00;;
3487;SDS011;38546;48.170;11.724;2022-09-09T15:23:51;0.97;;;0.97;;
3487;SDS011;38546;48.170;11.724;2022-09-09T15:26:40;2.13;;;1.27;;
3487;SDS011;38546;48.170;11.724;2022-09-09T15:29:30;1.87;;;1.77;;
3487;SDS011;38546;48.170;11.724;2022-09-09T15:32:19;2.30;;;1.13;;
3487;SDS011;38546;48.170;11.724;2022-09-09T15:35:08;1.10;;;1.10;;
3487;SDS011;38546;48.170;11.724;2022-09-09T15:38:01;1.13;;;1.13;;
3487;SDS011;38546;48.170;11.724;2022-09-09T15:40:56;1.27;;;1.20;;
3487;SDS011;38546;48.170;11.724;2022-09-09T15:43:51;1.33;;;1.17;;
3487;SDS011;38546;48.170;11.724;2022-09-09T15:46:54;5.80;;;1.43;;
3487;SDS011;38546;48.170;11.724;2022-09-09T15:49:43;1.13;;;1.10;;
3487;SDS011;38546;48.170;11.724;2022-09-09T15:52:33;1.77;;;1.43;;
3487;SDS011;38546;48.170;11.724;2022-09-09T15:55:23;1.13;;;1.13;;
3487;SDS011;38546;48.170;11.724;2022-09-09T15:58:15;1.40;;;1.30;;
3487;SDS011;38546;48.170;11.724;2022-09-09T16:01:08;1.30;;;1.20;;
3487;SDS011;38546;48.170;11.724;2022-09-09T16:03:59;4.07;;;1.62;;
3487;SDS011;38546;48.170;11.724;2022-09-09T16:06:59;1.73;;;1.20;;
3487;SDS011;38546;48.170;11.724;2022-09-09T16:10:02;1.43;;;1.30;;
3487;SDS011;38546;48.170;11.724;2022-09-09T16:12:52;1.37;;;1.30;;
3487;SDS011;38546;48.170;11.724;2022-09-09T16:15:42;1.30;;;1.20;;
3487;SDS011;38546;48.170;11.724;2022-09-09T16:18:36;1.57;;;1.57;;
3487;SDS011;38546;48.170;11.724;2022-09-09T16:21:28;4.80;;;2.00;;
3487;SDS011;38546;48.170;11.724;2022-09-09T16:24:25;4.30;;;1.95;;
3487;SDS011;38546;48.170;11.724;2022-09-09T16:27:15;2.10;;;1.20;;
3487;SDS011;38546;48.170;11.724;2022-09-09T16:30:05;1.37;;;1.27;;
3487;SDS011;38546;48.170;11.724;2022-09-09T16:32:56;1.40;;;1.30;;
3487;SDS011;38546;48.170;11.724;2022-09-09T16:35:46;1.10;;;1.00;;
3487;SDS011;38546;48.170;11.724;2022-09-09T16:38:35;7.13;;;1.50;;
3487;SDS011;38546;48.170;11.724;2022-09-09T16:41:26;1.53;;;0.90;;
3487;SDS011;38546;48.170;11.724;2022-09-09T16:44:16;1.70;;;1.47;;
3487;SDS011;38546;48.170;11.724;2022-09-09T16:47:07;1.37;;;1.17;;
3487;SDS011;38546;48.170;11.724;2022-09-09T16:49:56;1.10;;;1.07;;
3487;SDS011;38546;48.170;11.724;2022-09-09T16:52:45;1.30;;;1.30;;
3487;SDS011;38546;48.170;11.724;2022-09-09T16:55:38;4.07;;;1.20;;
3487;SDS011;38546;48.170;11.724;2022-09-09T16:58:29;1.13;;;1.13;;
3487;SDS011;38546;48.170;11.724;2022-09-09T17:01:18;1.20;;;1.20;;
3487;SDS011;38546;48.170;11.724;2022-09-09T17:04:15;1.33;;;1.23;;
3487;SDS011;38546;48.170;11.724;2022-09-09T17:07:13;1.20;;;1.10;;
3487;SDS011;38546;48.170;11.724;2022-09-09T17:10:04;2.20;;;1.40;;
3487;SDS011;38546;48.170;11.724;2022-09-09T17:12:54;5.80;;;2.60;;
3487;SDS011;38546;48.170;11.724;2022-09-09T17:15:44;1.77;;;1.40;;
3487;SDS011;38546;48.170;11.724;2022-09-09T17:18:34;1.67;;;1.53;;
3487;SDS011;38546;48.170;11.724;2022-09-09T17:21:26;3.20;;;1.70;;
3487;SDS011;38546;48.170;11.724;2022-09-09T17:24:16;2.80;;;1.17;;
3487;SDS011;38546;48.170;11.724;2022-09-09T17:27:06;1.30;;;1.20;;
3487;SDS011;38546;48.170;11.724;2022-09-09T17:29:55;3.00;;;1.30;;
3487;SDS011;38546;48.170;11.724;2022-09-09T17:32:46;1.43;;;1.43;;
3487;SDS011;38546;48.170;11.724;2022-09-09T17:35:35;1.20;;;1.20;;
3487;SDS011;38546;48.170;11.724;2022-09-09T17:38:24;1.03;;;1.00;;
3487;SDS011;38546;48.170;11.724;2022-09-09T17:41:40;1.90;;;1.20;;
3487;SDS011;38546;48.170;11.724;2022-09-09T17:44:29;2.27;;;1.70;;
3487;SDS011;38546;48.170;11.724;2022-09-09T17:47:20;1.40;;;1.40;;
3487;SDS011;38546;48.170;11.724;2022-09-09T17:50:09;1.70;;;1.43;;
3487;SDS011;38546;48.170;11.724;2022-09-09T17:53:01;1.40;;;1.40;;
3487;SDS011;38546;48.170;11.724;2022-09-09T17:55:50;3.80;;;1.65;;
3487;SDS011;38546;48.170;11.724;2022-09-09T17:58:40;1.60;;;1.20;;
3487;SDS011;38546;48.170;11.724;2022-09-09T18:01:30;1.40;;;1.30;;
3487;SDS011;38546;48.170;11.724;2022-09-09T18:04:23;3.23;;;1.40;;
3487;SDS011;38546;48.170;11.724;2022-09-09T18:07:12;1.60;;;1.40;;
3487;SDS011;38546;48.170;11.724;2022-09-09T18:10:01;2.23;;;1.50;;
3487;SDS011;38546;48.170;11.724;2022-09-09T18:12:51;1.47;;;1.47;;
3487;SDS011;38546;48.170;11.724;2022-09-09T18:15:39;2.10;;;2.00;;
3487;SDS011;38546;48.170;11.724;2022-09-09T18:18:29;1.30;;;1.30;;
3487;SDS011;38546;48.170;11.724;2022-09-09T18:21:18;1.60;;;1.50;;
3487;SDS011;38546;48.170;11.724;2022-09-09T18:24:08;1.77;;;1.67;;
3487;SDS011;38546;48.170;11.724;2022-09-09T18:27:00;2.00;;;1.30;;
3487;SDS011;38546;48.170;11.724;2022-09-09T18:29:49;2.50;;;1.57;;
3487;SDS011;38546;48.170;11.724;2022-09-09T18:32:38;1.53;;;1.43;;
3487;SDS011;38546;48.170;11.724;2022-09-09T18:35:28;2.60;;;1.70;;
3487;SDS011;38546;48.170;11.724;2022-09-09T18:38:17;1.80;;;1.70;;
3487;SDS011;38546;48.170;11.724;2022-09-09T18:41:23;1.80;;;1.70;;
3487;SDS011;38546;48.170;11.724;2022-09-09T18:44:22;4.87;;;3.07;;
3487;SDS011;38546;48.170;11.724;2022-09-09T18:47:13;2.50;;;2.07;;
3487;SDS011;38546;48.170;11.724;2022-09-09T18:50:05;1.77;;;1.67;;
3487;SDS011;38546;48.170;11.724;2022-09-09T18:52:55;1.80;;;1.70;;
3487;SDS011;38546;48.170;11.724;2022-09-09T18:55:44;2.10;;;2.00;;
3487;SDS011;38546;48.170;11.724;2022-09-09T18:58:33;3.30;;;2.07;;
3487;SDS011;38546;48.170;11.724;2022-09-09T19:01:24;2.47;;;2.33;;
3487;SDS011;38546;48.170;11.724;2022-09-09T19:04:13;1.93;;;1.83;;
3487;SDS011;38546;48.170;11.724;2022-09-09T19:07:03;2.43;;;1.93;;
3487;SDS011;38546;48.170;11.724;2022-09-09T19:09:52;2.90;;;1.47;;
3487;SDS011;38546;48.170;11.724;2022-09-09T19:12:41;1.83;;;1.73;;
3487;SDS011;38546;48.170;11.724;2022-09-09T19:15:30;1.73;;;1.63;;